sensor_id;sensor_type;location;lat;lon;timestamp;P1;durP1;ratioP1;P2;durP2;ratioP2
67941;SDS011;54731;42.600;23.476;2023-04-03T00:00:10;2.03;;;1.40;;
67941;SDS011;54731;42.600;23.476;2023-04-03T00:02:36;3.97;;;1.10;;
67941;SDS011;54731;42.600;23.476;2023-04-03T00:05:02;1.97;;;0.93;;
67941;SDS011;54731;42.600;23.476;2023-04-03T00:07:27;2.73;;;0.90;;
67941;SDS011;54731;42.600;23.476;2023-04-03T00:09:52;1.57;;;0.60;;
67941;SDS011;54731;42.600;23.476;2023-04-03T00:12:18;3.13;;;0.90;;
67941;SDS011;54731;42.600;23.476;2023-04-03T00:14:43;4.45;;;1.25;;
67941;SDS011;54731;42.600;23.476;2023-04-03T00:17:08;4.80;;;1.03;;
67941;SDS011;54731;42.600;23.476;2023-04-03T00:19:34;1.77;;;0.80;;
67941;SDS011;54731;42.600;23.476;2023-04-03T00:21:59;1.37;;;0.70;;
67941;SDS011;54731;42.600;23.476;2023-04-03T00:24:24;1.87;;;1.00;;
67941;SDS011;54731;42.600;23.476;2023-04-03T00:26:50;1.50;;;0.73;;
67941;SDS011;54731;42.600;23.476;2023-04-03T00:29:15;2.20;;;0.80;;
67941;SDS011;54731;42.600;23.476;2023-04-03T00:31:40;4.53;;;1.20;;
67941;SDS011;54731;42.600;23.476;2023-04-03T00:34:05;2.50;;;0.95;;
67941;SDS011;54731;42.600;23.476;2023-04-03T00:36:31;4.38;;;1.05;;
67941;SDS011;54731;42.600;23.476;2023-04-03T00:38:56;1.00;;;0.60;;
67941;SDS011;54731;42.600;23.476;2023-04-03T00:41:21;2.37;;;1.07;;
67941;SDS011;54731;42.600;23.476;2023-04-03T00:43:47;2.73;;;0.97;;
67941;SDS011;54731;42.600;23.476;2023-04-03T00:46:12;3.33;;;0.93;;
67941;SDS011;54731;42.600;23.476;2023-04-03T00:48:39;6.13;;;2.73;;
67941;SDS011;54731;42.600;23.476;2023-04-03T00:51:07;8.23;;;3.92;;
67941;SDS011;54731;42.600;23.476;2023-04-03T00:56:32;3.00;;;1.30;;
67941;SDS011;54731;42.600;23.476;2023-04-03T01:01:30;3.40;;;1.00;;
67941;SDS011;54731;42.600;23.476;2023-04-03T01:03:57;1.47;;;0.57;;
67941;SDS011;54731;42.600;23.476;2023-04-03T01:06:26;1.75;;;0.70;;
67941;SDS011;54731;42.600;23.476;2023-04-03T01:08:53;1.90;;;0.88;;
67941;SDS011;54731;42.600;23.476;2023-04-03T01:11:20;2.08;;;0.90;;
67941;SDS011;54731;42.600;23.476;2023-04-03T01:13:45;2.35;;;0.88;;
67941;SDS011;54731;42.600;23.476;2023-04-03T01:16:11;1.47;;;0.77;;
67941;SDS011;54731;42.600;23.476;2023-04-03T01:18:37;2.03;;;0.90;;
67941;SDS011;54731;42.600;23.476;2023-04-03T01:26:03;1.50;;;0.70;;
67941;SDS011;54731;42.600;23.476;2023-04-03T01:28:30;1.52;;;0.60;;
67941;SDS011;54731;42.600;23.476;2023-04-03T01:33:49;1.20;;;0.65;;
67941;SDS011;54731;42.600;23.476;2023-04-03T01:36:17;1.27;;;0.60;;
67941;SDS011;54731;42.600;23.476;2023-04-03T01:38:48;1.35;;;0.50;;
67941;SDS011;54731;42.600;23.476;2023-04-03T01:41:13;1.53;;;0.80;;
67941;SDS011;54731;42.600;23.476;2023-04-03T01:43:39;2.22;;;0.65;;
67941;SDS011;54731;42.600;23.476;2023-04-03T01:46:04;1.60;;;0.60;;
67941;SDS011;54731;42.600;23.476;2023-04-03T01:48:29;1.87;;;0.60;;
67941;SDS011;54731;42.600;23.476;2023-04-03T01:50:55;1.77;;;0.60;;
67941;SDS011;54731;42.600;23.476;2023-04-03T01:53:20;1.80;;;0.70;;
67941;SDS011;54731;42.600;23.476;2023-04-03T01:55:45;1.00;;;0.60;;
67941;SDS011;54731;42.600;23.476;2023-04-03T01:58:11;1.67;;;0.70;;
67941;SDS011;54731;42.600;23.476;2023-04-03T02:00:36;1.50;;;0.63;;
67941;SDS011;54731;42.600;23.476;2023-04-03T02:03:02;1.67;;;0.60;;
67941;SDS011;54731;42.600;23.476;2023-04-03T02:05:27;2.10;;;0.50;;
67941;SDS011;54731;42.600;23.476;2023-04-03T02:07:52;1.08;;;0.47;;
67941;SDS011;54731;42.600;23.476;2023-04-03T02:10:18;2.10;;;0.65;;
67941;SDS011;54731;42.600;23.476;2023-04-03T02:12:43;1.30;;;0.60;;
67941;SDS011;54731;42.600;23.476;2023-04-03T02:15:08;1.07;;;0.50;;
67941;SDS011;54731;42.600;23.476;2023-04-03T02:17:34;2.50;;;0.60;;
67941;SDS011;54731;42.600;23.476;2023-04-03T02:20:00;2.25;;;1.00;;
67941;SDS011;54731;42.600;23.476;2023-04-03T02:22:26;3.20;;;0.90;;
67941;SDS011;54731;42.600;23.476;2023-04-03T02:24:51;1.25;;;0.60;;
67941;SDS011;54731;42.600;23.476;2023-04-03T02:27:16;1.70;;;0.77;;
67941;SDS011;54731;42.600;23.476;2023-04-03T02:29:42;1.60;;;0.80;;
67941;SDS011;54731;42.600;23.476;2023-04-03T02:32:07;0.93;;;0.47;;
67941;SDS011;54731;42.600;23.476;2023-04-03T02:34:32;1.60;;;0.60;;
67941;SDS011;54731;42.600;23.476;2023-04-03T02:36:58;1.07;;;0.53;;
67941;SDS011;54731;42.600;23.476;2023-04-03T02:39:23;1.95;;;0.60;;
67941;SDS011;54731;42.600;23.476;2023-04-03T02:41:48;1.73;;;0.88;;
67941;SDS011;54731;42.600;23.476;2023-04-03T02:44:14;2.53;;;0.90;;
67941;SDS011;54731;42.600;23.476;2023-04-03T02:46:39;1.93;;;0.60;;
67941;SDS011;54731;42.600;23.476;2023-04-03T02:49:04;3.57;;;0.60;;
67941;SDS011;54731;42.600;23.476;2023-04-03T02:51:30;2.03;;;0.73;;
67941;SDS011;54731;42.600;23.476;2023-04-03T02:53:55;1.67;;;0.60;;
67941;SDS011;54731;42.600;23.476;2023-04-03T02:56:20;1.30;;;0.50;;
67941;SDS011;54731;42.600;23.476;2023-04-03T02:58:46;2.30;;;0.90;;
67941;SDS011;54731;42.600;23.476;2023-04-03T03:01:19;2.55;;;0.70;;
67941;SDS011;54731;42.600;23.476;2023-04-03T03:03:44;0.77;;;0.45;;
67941;SDS011;54731;42.600;23.476;2023-04-03T03:06:10;1.93;;;0.70;;
67941;SDS011;54731;42.600;23.476;2023-04-03T03:08:37;1.65;;;0.90;;
67941;SDS011;54731;42.600;23.476;2023-04-03T03:11:04;1.90;;;0.73;;
67941;SDS011;54731;42.600;23.476;2023-04-03T03:13:30;3.97;;;2.38;;
67941;SDS011;54731;42.600;23.476;2023-04-03T03:15:55;7.50;;;4.90;;
67941;SDS011;54731;42.600;23.476;2023-04-03T03:18:21;4.68;;;2.80;;
67941;SDS011;54731;42.600;23.476;2023-04-03T03:20:46;4.67;;;2.50;;
67941;SDS011;54731;42.600;23.476;2023-04-03T03:23:16;4.03;;;1.85;;
67941;SDS011;54731;42.600;23.476;2023-04-03T03:25:41;3.70;;;2.80;;
67941;SDS011;54731;42.600;23.476;2023-04-03T03:28:07;1.87;;;1.20;;
67941;SDS011;54731;42.600;23.476;2023-04-03T03:30:32;1.60;;;0.90;;
67941;SDS011;54731;42.600;23.476;2023-04-03T03:32:58;2.30;;;1.70;;
67941;SDS011;54731;42.600;23.476;2023-04-03T03:35:23;6.70;;;3.87;;
67941;SDS011;54731;42.600;23.476;2023-04-03T03:37:49;8.48;;;4.22;;
67941;SDS011;54731;42.600;23.476;2023-04-03T03:40:14;6.30;;;3.53;;
67941;SDS011;54731;42.600;23.476;2023-04-03T03:42:40;4.30;;;2.10;;
67941;SDS011;54731;42.600;23.476;2023-04-03T03:45:05;3.27;;;2.00;;
67941;SDS011;54731;42.600;23.476;2023-04-03T03:47:31;7.38;;;2.50;;
67941;SDS011;54731;42.600;23.476;2023-04-03T03:49:57;6.30;;;2.70;;
67941;SDS011;54731;42.600;23.476;2023-04-03T03:52:22;3.63;;;2.28;;
67941;SDS011;54731;42.600;23.476;2023-04-03T03:54:47;2.88;;;0.80;;
67941;SDS011;54731;42.600;23.476;2023-04-03T03:57:13;2.33;;;1.03;;
67941;SDS011;54731;42.600;23.476;2023-04-03T03:59:38;2.43;;;1.40;;
67941;SDS011;54731;42.600;23.476;2023-04-03T04:02:03;2.77;;;1.40;;
67941;SDS011;54731;42.600;23.476;2023-04-03T04:04:29;4.20;;;1.00;;
67941;SDS011;54731;42.600;23.476;2023-04-03T04:06:54;2.75;;;0.98;;
67941;SDS011;54731;42.600;23.476;2023-04-03T04:09:20;5.77;;;1.50;;
67941;SDS011;54731;42.600;23.476;2023-04-03T04:11:45;6.03;;;1.80;;
67941;SDS011;54731;42.600;23.476;2023-04-03T04:14:10;4.33;;;2.20;;
67941;SDS011;54731;42.600;23.476;2023-04-03T04:16:36;6.93;;;2.00;;
67941;SDS011;54731;42.600;23.476;2023-04-03T04:19:01;2.57;;;1.10;;
67941;SDS011;54731;42.600;23.476;2023-04-03T04:21:26;2.70;;;1.27;;
67941;SDS011;54731;42.600;23.476;2023-04-03T04:23:51;2.87;;;0.90;;
67941;SDS011;54731;42.600;23.476;2023-04-03T04:26:17;1.83;;;1.10;;
67941;SDS011;54731;42.600;23.476;2023-04-03T04:28:42;3.47;;;1.27;;
67941;SDS011;54731;42.600;23.476;2023-04-03T04:31:07;2.87;;;1.60;;
67941;SDS011;54731;42.600;23.476;2023-04-03T04:33:33;2.23;;;1.30;;
67941;SDS011;54731;42.600;23.476;2023-04-03T04:35:58;2.10;;;1.10;;
67941;SDS011;54731;42.600;23.476;2023-04-03T04:38:23;2.03;;;0.90;;
67941;SDS011;54731;42.600;23.476;2023-04-03T04:40:49;2.00;;;0.83;;
67941;SDS011;54731;42.600;23.476;2023-04-03T04:43:14;1.70;;;0.87;;
67941;SDS011;54731;42.600;23.476;2023-04-03T04:45:40;2.90;;;0.82;;
67941;SDS011;54731;42.600;23.476;2023-04-03T04:48:06;1.85;;;1.02;;
67941;SDS011;54731;42.600;23.476;2023-04-03T04:50:32;1.40;;;1.00;;
67941;SDS011;54731;42.600;23.476;2023-04-03T04:52:57;2.50;;;1.00;;
67941;SDS011;54731;42.600;23.476;2023-04-03T04:55:22;2.77;;;1.30;;
67941;SDS011;54731;42.600;23.476;2023-04-03T04:57:47;2.60;;;1.40;;
67941;SDS011;54731;42.600;23.476;2023-04-03T05:00:13;3.67;;;1.60;;
67941;SDS011;54731;42.600;23.476;2023-04-03T05:02:39;2.15;;;1.25;;
67941;SDS011;54731;42.600;23.476;2023-04-03T05:05:04;4.13;;;1.40;;
67941;SDS011;54731;42.600;23.476;2023-04-03T05:07:30;2.13;;;1.63;;
67941;SDS011;54731;42.600;23.476;2023-04-03T05:09:55;3.10;;;1.93;;
67941;SDS011;54731;42.600;23.476;2023-04-03T05:12:20;6.83;;;2.50;;
67941;SDS011;54731;42.600;23.476;2023-04-03T05:14:46;5.77;;;1.90;;
67941;SDS011;54731;42.600;23.476;2023-04-03T05:17:11;3.97;;;1.90;;
67941;SDS011;54731;42.600;23.476;2023-04-03T05:19:36;2.73;;;1.53;;
67941;SDS011;54731;42.600;23.476;2023-04-03T05:22:02;4.70;;;2.73;;
67941;SDS011;54731;42.600;23.476;2023-04-03T05:24:27;6.38;;;3.60;;
67941;SDS011;54731;42.600;23.476;2023-04-03T05:26:53;3.13;;;1.70;;
67941;SDS011;54731;42.600;23.476;2023-04-03T05:29:18;3.60;;;2.60;;
67941;SDS011;54731;42.600;23.476;2023-04-03T05:31:43;3.40;;;2.40;;
67941;SDS011;54731;42.600;23.476;2023-04-03T05:34:09;6.17;;;3.80;;
67941;SDS011;54731;42.600;23.476;2023-04-03T05:36:34;6.03;;;3.15;;
67941;SDS011;54731;42.600;23.476;2023-04-03T05:38:59;5.67;;;3.00;;
67941;SDS011;54731;42.600;23.476;2023-04-03T05:41:24;7.40;;;3.57;;
67941;SDS011;54731;42.600;23.476;2023-04-03T05:43:50;9.30;;;3.73;;
67941;SDS011;54731;42.600;23.476;2023-04-03T05:46:16;9.00;;;4.30;;
67941;SDS011;54731;42.600;23.476;2023-04-03T05:48:43;12.95;;;5.40;;
67941;SDS011;54731;42.600;23.476;2023-04-03T05:51:16;23.13;;;8.93;;
67941;SDS011;54731;42.600;23.476;2023-04-03T05:53:46;24.10;;;9.50;;
67941;SDS011;54731;42.600;23.476;2023-04-03T05:56:12;23.17;;;9.40;;
67941;SDS011;54731;42.600;23.476;2023-04-03T05:58:38;41.90;;;16.50;;
67941;SDS011;54731;42.600;23.476;2023-04-03T06:01:03;43.00;;;17.57;;
67941;SDS011;54731;42.600;23.476;2023-04-03T06:03:29;38.55;;;17.73;;
67941;SDS011;54731;42.600;23.476;2023-04-03T06:05:54;62.07;;;23.93;;
67941;SDS011;54731;42.600;23.476;2023-04-03T06:08:19;60.33;;;26.17;;
67941;SDS011;54731;42.600;23.476;2023-04-03T06:10:44;94.07;;;32.47;;
67941;SDS011;54731;42.600;23.476;2023-04-03T06:13:10;50.13;;;19.33;;
67941;SDS011;54731;42.600;23.476;2023-04-03T06:15:35;26.13;;;12.27;;
67941;SDS011;54731;42.600;23.476;2023-04-03T06:18:01;18.35;;;9.85;;
67941;SDS011;54731;42.600;23.476;2023-04-03T06:20:27;23.98;;;10.55;;
67941;SDS011;54731;42.600;23.476;2023-04-03T06:22:52;18.60;;;8.45;;
67941;SDS011;54731;42.600;23.476;2023-04-03T06:25:18;17.10;;;8.27;;
67941;SDS011;54731;42.600;23.476;2023-04-03T06:27:43;17.13;;;8.20;;
67941;SDS011;54731;42.600;23.476;2023-04-03T06:30:08;12.43;;;6.67;;
67941;SDS011;54731;42.600;23.476;2023-04-03T06:32:34;17.03;;;8.73;;
67941;SDS011;54731;42.600;23.476;2023-04-03T06:34:59;17.80;;;9.43;;
67941;SDS011;54731;42.600;23.476;2023-04-03T06:37:24;18.80;;;8.73;;
67941;SDS011;54731;42.600;23.476;2023-04-03T06:39:50;19.30;;;8.63;;
67941;SDS011;54731;42.600;23.476;2023-04-03T06:42:15;15.17;;;7.53;;
67941;SDS011;54731;42.600;23.476;2023-04-03T06:44:40;25.97;;;9.37;;
67941;SDS011;54731;42.600;23.476;2023-04-03T06:47:05;16.87;;;6.73;;
67941;SDS011;54731;42.600;23.476;2023-04-03T06:49:31;11.67;;;4.43;;
67941;SDS011;54731;42.600;23.476;2023-04-03T06:51:56;10.57;;;6.00;;
67941;SDS011;54731;42.600;23.476;2023-04-03T06:54:23;14.05;;;7.05;;
67941;SDS011;54731;42.600;23.476;2023-04-03T06:56:48;21.17;;;8.87;;
67941;SDS011;54731;42.600;23.476;2023-04-03T06:59:14;16.98;;;7.72;;
67941;SDS011;54731;42.600;23.476;2023-04-03T07:01:39;14.45;;;6.65;;
67941;SDS011;54731;42.600;23.476;2023-04-03T07:04:05;16.27;;;8.67;;
67941;SDS011;54731;42.600;23.476;2023-04-03T07:06:30;12.73;;;7.00;;
67941;SDS011;54731;42.600;23.476;2023-04-03T07:08:56;11.43;;;6.65;;
67941;SDS011;54731;42.600;23.476;2023-04-03T07:11:21;15.02;;;7.60;;
67941;SDS011;54731;42.600;23.476;2023-04-03T07:13:46;12.60;;;7.07;;
67941;SDS011;54731;42.600;23.476;2023-04-03T07:16:12;23.53;;;9.73;;
67941;SDS011;54731;42.600;23.476;2023-04-03T07:18:37;20.00;;;9.57;;
67941;SDS011;54731;42.600;23.476;2023-04-03T07:21:03;18.23;;;8.47;;
67941;SDS011;54731;42.600;23.476;2023-04-03T07:23:29;14.20;;;7.63;;
67941;SDS011;54731;42.600;23.476;2023-04-03T07:25:54;12.27;;;6.87;;
67941;SDS011;54731;42.600;23.476;2023-04-03T07:28:20;13.38;;;5.70;;
67941;SDS011;54731;42.600;23.476;2023-04-03T07:30:48;9.98;;;5.35;;
67941;SDS011;54731;42.600;23.476;2023-04-03T07:33:15;11.00;;;5.33;;
67941;SDS011;54731;42.600;23.476;2023-04-03T07:35:42;8.55;;;4.55;;
67941;SDS011;54731;42.600;23.476;2023-04-03T07:38:08;9.55;;;4.20;;
67941;SDS011;54731;42.600;23.476;2023-04-03T07:40:34;12.80;;;5.60;;
67941;SDS011;54731;42.600;23.476;2023-04-03T07:43:00;7.37;;;5.23;;
67941;SDS011;54731;42.600;23.476;2023-04-03T07:45:26;10.13;;;5.20;;
67941;SDS011;54731;42.600;23.476;2023-04-03T07:47:52;12.30;;;6.53;;
67941;SDS011;54731;42.600;23.476;2023-04-03T07:50:17;8.73;;;5.28;;
67941;SDS011;54731;42.600;23.476;2023-04-03T07:52:43;8.48;;;5.10;;
67941;SDS011;54731;42.600;23.476;2023-04-03T07:55:09;11.17;;;4.87;;
67941;SDS011;54731;42.600;23.476;2023-04-03T07:57:34;7.90;;;4.60;;
67941;SDS011;54731;42.600;23.476;2023-04-03T07:59:59;10.50;;;4.40;;
67941;SDS011;54731;42.600;23.476;2023-04-03T08:02:25;6.95;;;4.43;;
67941;SDS011;54731;42.600;23.476;2023-04-03T08:04:50;9.47;;;4.37;;
67941;SDS011;54731;42.600;23.476;2023-04-03T08:07:15;7.47;;;4.80;;
67941;SDS011;54731;42.600;23.476;2023-04-03T08:09:41;8.23;;;5.07;;
67941;SDS011;54731;42.600;23.476;2023-04-03T08:12:06;10.77;;;5.93;;
67941;SDS011;54731;42.600;23.476;2023-04-03T08:14:31;10.20;;;4.80;;
67941;SDS011;54731;42.600;23.476;2023-04-03T08:16:57;10.23;;;5.00;;
67941;SDS011;54731;42.600;23.476;2023-04-03T08:19:22;9.20;;;5.20;;
67941;SDS011;54731;42.600;23.476;2023-04-03T08:21:48;12.43;;;6.20;;
67941;SDS011;54731;42.600;23.476;2023-04-03T08:24:13;15.30;;;7.90;;
67941;SDS011;54731;42.600;23.476;2023-04-03T08:26:38;12.20;;;6.37;;
67941;SDS011;54731;42.600;23.476;2023-04-03T08:29:03;11.07;;;5.80;;
67941;SDS011;54731;42.600;23.476;2023-04-03T08:31:29;15.33;;;6.67;;
67941;SDS011;54731;42.600;23.476;2023-04-03T08:33:57;19.75;;;6.28;;
67941;SDS011;54731;42.600;23.476;2023-04-03T08:36:23;13.35;;;6.93;;
67941;SDS011;54731;42.600;23.476;2023-04-03T08:38:50;13.23;;;7.40;;
67941;SDS011;54731;42.600;23.476;2023-04-03T08:52:10;11.35;;;5.45;;
67941;SDS011;54731;42.600;23.476;2023-04-03T08:54:48;12.80;;;6.25;;
67941;SDS011;54731;42.600;23.476;2023-04-03T08:57:20;12.57;;;6.50;;
67941;SDS011;54731;42.600;23.476;2023-04-03T08:59:54;9.10;;;4.63;;
67941;SDS011;54731;42.600;23.476;2023-04-03T09:02:33;11.00;;;4.78;;
67941;SDS011;54731;42.600;23.476;2023-04-03T09:05:09;6.40;;;4.55;;
67941;SDS011;54731;42.600;23.476;2023-04-03T09:07:49;7.03;;;4.60;;
67941;SDS011;54731;42.600;23.476;2023-04-03T09:10:27;7.10;;;4.45;;
67941;SDS011;54731;42.600;23.476;2023-04-03T09:12:59;9.57;;;4.45;;
67941;SDS011;54731;42.600;23.476;2023-04-03T09:15:30;6.82;;;4.38;;
67941;SDS011;54731;42.600;23.476;2023-04-03T09:23:21;4.85;;;2.65;;
67941;SDS011;54731;42.600;23.476;2023-04-03T09:25:53;7.97;;;4.13;;
67941;SDS011;54731;42.600;23.476;2023-04-03T09:28:39;6.43;;;4.05;;
67941;SDS011;54731;42.600;23.476;2023-04-03T09:33:50;7.65;;;4.32;;
67941;SDS011;54731;42.600;23.476;2023-04-03T09:39:28;9.83;;;6.07;;
67941;SDS011;54731;42.600;23.476;2023-04-03T09:41:56;14.18;;;6.78;;
67941;SDS011;54731;42.600;23.476;2023-04-03T09:44:23;10.68;;;5.28;;
67941;SDS011;54731;42.600;23.476;2023-04-03T09:46:53;18.50;;;9.30;;
67941;SDS011;54731;42.600;23.476;2023-04-03T09:49:18;9.63;;;4.40;;
67941;SDS011;54731;42.600;23.476;2023-04-03T09:51:44;15.13;;;5.77;;
67941;SDS011;54731;42.600;23.476;2023-04-03T09:57:01;6.50;;;2.22;;
67941;SDS011;54731;42.600;23.476;2023-04-03T09:59:31;5.55;;;2.58;;
67941;SDS011;54731;42.600;23.476;2023-04-03T10:01:58;3.72;;;2.38;;
67941;SDS011;54731;42.600;23.476;2023-04-03T10:04:36;10.27;;;7.70;;
67941;SDS011;54731;42.600;23.476;2023-04-03T10:10:01;5.35;;;2.72;;
67941;SDS011;54731;42.600;23.476;2023-04-03T10:12:47;7.85;;;3.03;;
67941;SDS011;54731;42.600;23.476;2023-04-03T10:15:13;7.07;;;3.50;;
67941;SDS011;54731;42.600;23.476;2023-04-03T10:17:47;9.98;;;5.57;;
67941;SDS011;54731;42.600;23.476;2023-04-03T10:20:26;8.95;;;5.85;;
67941;SDS011;54731;42.600;23.476;2023-04-03T10:33:44;4.60;;;2.92;;
67941;SDS011;54731;42.600;23.476;2023-04-03T10:47:56;10.50;;;5.65;;
67941;SDS011;54731;42.600;23.476;2023-04-03T10:53:30;8.65;;;5.00;;
67941;SDS011;54731;42.600;23.476;2023-04-03T10:58:38;7.75;;;4.72;;
67941;SDS011;54731;42.600;23.476;2023-04-03T11:01:08;8.98;;;4.88;;
67941;SDS011;54731;42.600;23.476;2023-04-03T11:03:47;8.90;;;4.68;;
67941;SDS011;54731;42.600;23.476;2023-04-03T11:06:19;13.15;;;7.72;;
67941;SDS011;54731;42.600;23.476;2023-04-03T11:08:51;8.60;;;4.18;;
67941;SDS011;54731;42.600;23.476;2023-04-03T11:11:22;7.38;;;4.75;;
67941;SDS011;54731;42.600;23.476;2023-04-03T11:13:52;6.80;;;4.35;;
67941;SDS011;54731;42.600;23.476;2023-04-03T11:16:24;9.13;;;3.63;;
67941;SDS011;54731;42.600;23.476;2023-04-03T11:18:54;8.43;;;3.63;;
67941;SDS011;54731;42.600;23.476;2023-04-03T11:21:42;6.90;;;3.90;;
67941;SDS011;54731;42.600;23.476;2023-04-03T11:24:15;5.90;;;3.67;;
67941;SDS011;54731;42.600;23.476;2023-04-03T11:26:47;7.55;;;4.75;;
67941;SDS011;54731;42.600;23.476;2023-04-03T11:29:17;12.48;;;9.90;;
67941;SDS011;54731;42.600;23.476;2023-04-03T11:34:41;8.93;;;6.00;;
67941;SDS011;54731;42.600;23.476;2023-04-03T11:37:31;10.95;;;7.20;;
67941;SDS011;54731;42.600;23.476;2023-04-03T11:40:21;18.55;;;11.07;;
67941;SDS011;54731;42.600;23.476;2023-04-03T11:42:47;13.93;;;8.57;;
67941;SDS011;54731;42.600;23.476;2023-04-03T11:47:48;9.75;;;5.53;;
67941;SDS011;54731;42.600;23.476;2023-04-03T11:50:31;199.05;;;54.65;;
67941;SDS011;54731;42.600;23.476;2023-04-03T11:53:01;158.27;;;41.38;;
67941;SDS011;54731;42.600;23.476;2023-04-03T12:05:48;175.75;;;65.78;;
67941;SDS011;54731;42.600;23.476;2023-04-03T12:08:15;64.93;;;26.77;;
67941;SDS011;54731;42.600;23.476;2023-04-03T12:11:34;88.95;;;33.03;;
67941;SDS011;54731;42.600;23.476;2023-04-03T12:13:35;59.97;;;21.92;;
67941;SDS011;54731;42.600;23.476;2023-04-03T12:16:00;227.75;;;82.47;;
67941;SDS011;54731;42.600;23.476;2023-04-03T12:18:44;38.15;;;14.93;;
67941;SDS011;54731;42.600;23.476;2023-04-03T12:26:25;32.83;;;16.87;;
67941;SDS011;54731;42.600;23.476;2023-04-03T12:28:55;32.28;;;17.00;;
67941;SDS011;54731;42.600;23.476;2023-04-03T12:31:22;35.70;;;18.48;;
67941;SDS011;54731;42.600;23.476;2023-04-03T12:33:59;61.30;;;33.92;;
67941;SDS011;54731;42.600;23.476;2023-04-03T12:36:42;8.32;;;5.05;;
67941;SDS011;54731;42.600;23.476;2023-04-03T12:45:20;5.63;;;3.30;;
67941;SDS011;54731;42.600;23.476;2023-04-03T12:47:46;7.22;;;4.72;;
67941;SDS011;54731;42.600;23.476;2023-04-03T12:50:47;6.25;;;3.95;;
67941;SDS011;54731;42.600;23.476;2023-04-03T12:53:10;5.65;;;3.95;;
67941;SDS011;54731;42.600;23.476;2023-04-03T12:55:43;9.13;;;5.43;;
67941;SDS011;54731;42.600;23.476;2023-04-03T12:58:21;8.73;;;6.33;;
67941;SDS011;54731;42.600;23.476;2023-04-03T13:01:04;11.18;;;6.63;;
67941;SDS011;54731;42.600;23.476;2023-04-03T13:03:36;7.53;;;3.83;;
67941;SDS011;54731;42.600;23.476;2023-04-03T13:06:04;12.05;;;6.95;;
67941;SDS011;54731;42.600;23.476;2023-04-03T13:08:30;30.65;;;19.42;;
67941;SDS011;54731;42.600;23.476;2023-04-03T13:11:30;18.30;;;13.37;;
67941;SDS011;54731;42.600;23.476;2023-04-03T13:13:58;13.00;;;9.63;;
67941;SDS011;54731;42.600;23.476;2023-04-03T13:16:53;15.30;;;12.35;;
67941;SDS011;54731;42.600;23.476;2023-04-03T13:19:26;24.42;;;13.00;;
67941;SDS011;54731;42.600;23.476;2023-04-03T13:24:27;12.73;;;7.03;;
67941;SDS011;54731;42.600;23.476;2023-04-03T13:26:53;19.27;;;11.38;;
67941;SDS011;54731;42.600;23.476;2023-04-03T13:29:21;26.60;;;17.40;;
67941;SDS011;54731;42.600;23.476;2023-04-03T13:31:54;31.10;;;18.10;;
67941;SDS011;54731;42.600;23.476;2023-04-03T13:34:21;29.13;;;12.20;;
67941;SDS011;54731;42.600;23.476;2023-04-03T13:41:47;29.23;;;15.07;;
67941;SDS011;54731;42.600;23.476;2023-04-03T13:46:46;33.83;;;15.25;;
67941;SDS011;54731;42.600;23.476;2023-04-03T13:49:20;83.20;;;38.00;;
67941;SDS011;54731;42.600;23.476;2023-04-03T13:51:46;47.75;;;23.73;;
67941;SDS011;54731;42.600;23.476;2023-04-03T13:54:16;30.38;;;14.85;;
67941;SDS011;54731;42.600;23.476;2023-04-03T13:56:45;27.85;;;13.10;;
67941;SDS011;54731;42.600;23.476;2023-04-03T14:01:43;37.85;;;18.00;;
67941;SDS011;54731;42.600;23.476;2023-04-03T14:04:44;30.60;;;14.35;;
67941;SDS011;54731;42.600;23.476;2023-04-03T14:07:01;25.00;;;13.50;;
67941;SDS011;54731;42.600;23.476;2023-04-03T14:09:27;33.60;;;19.00;;
67941;SDS011;54731;42.600;23.476;2023-04-03T14:11:54;34.33;;;18.97;;
67941;SDS011;54731;42.600;23.476;2023-04-03T14:14:29;35.47;;;16.42;;
67941;SDS011;54731;42.600;23.476;2023-04-03T14:16:57;34.83;;;19.50;;
67941;SDS011;54731;42.600;23.476;2023-04-03T14:19:29;33.05;;;20.17;;
67941;SDS011;54731;42.600;23.476;2023-04-03T14:21:57;38.90;;;22.20;;
67941;SDS011;54731;42.600;23.476;2023-04-03T14:24:24;23.88;;;14.82;;
67941;SDS011;54731;42.600;23.476;2023-04-03T14:26:50;34.13;;;18.07;;
67941;SDS011;54731;42.600;23.476;2023-04-03T14:29:18;13.38;;;8.35;;
67941;SDS011;54731;42.600;23.476;2023-04-03T14:31:45;15.55;;;9.00;;
67941;SDS011;54731;42.600;23.476;2023-04-03T14:34:12;12.90;;;7.90;;
67941;SDS011;54731;42.600;23.476;2023-04-03T14:36:38;11.90;;;6.70;;
67941;SDS011;54731;42.600;23.476;2023-04-03T14:39:05;15.18;;;8.65;;
67941;SDS011;54731;42.600;23.476;2023-04-03T14:41:32;23.05;;;13.30;;
67941;SDS011;54731;42.600;23.476;2023-04-03T14:43:57;39.30;;;22.13;;
67941;SDS011;54731;42.600;23.476;2023-04-03T14:46:26;30.03;;;17.00;;
67941;SDS011;54731;42.600;23.476;2023-04-03T14:48:56;11.63;;;5.95;;
67941;SDS011;54731;42.600;23.476;2023-04-03T14:51:22;8.83;;;5.23;;
67941;SDS011;54731;42.600;23.476;2023-04-03T14:53:47;9.50;;;5.57;;
67941;SDS011;54731;42.600;23.476;2023-04-03T14:56:18;11.53;;;5.80;;
67941;SDS011;54731;42.600;23.476;2023-04-03T14:58:43;11.27;;;6.53;;
67941;SDS011;54731;42.600;23.476;2023-04-03T15:01:09;21.23;;;10.80;;
67941;SDS011;54731;42.600;23.476;2023-04-03T15:03:35;31.30;;;16.60;;
67941;SDS011;54731;42.600;23.476;2023-04-03T15:06:01;26.67;;;11.87;;
67941;SDS011;54731;42.600;23.476;2023-04-03T15:08:26;33.70;;;13.97;;
67941;SDS011;54731;42.600;23.476;2023-04-03T15:10:53;15.25;;;9.32;;
67941;SDS011;54731;42.600;23.476;2023-04-03T15:13:19;6.40;;;5.10;;
67941;SDS011;54731;42.600;23.476;2023-04-03T15:15:44;18.08;;;10.60;;
67941;SDS011;54731;42.600;23.476;2023-04-03T15:18:15;34.70;;;18.48;;
67941;SDS011;54731;42.600;23.476;2023-04-03T15:20:46;26.33;;;13.98;;
67941;SDS011;54731;42.600;23.476;2023-04-03T15:23:12;19.48;;;8.27;;
67941;SDS011;54731;42.600;23.476;2023-04-03T15:25:39;15.15;;;8.20;;
67941;SDS011;54731;42.600;23.476;2023-04-03T15:28:05;15.43;;;7.37;;
67941;SDS011;54731;42.600;23.476;2023-04-03T15:30:31;10.73;;;6.70;;
67941;SDS011;54731;42.600;23.476;2023-04-03T15:32:56;7.40;;;4.03;;
67941;SDS011;54731;42.600;23.476;2023-04-03T15:35:22;4.47;;;3.30;;
67941;SDS011;54731;42.600;23.476;2023-04-03T15:37:47;4.80;;;3.33;;
67941;SDS011;54731;42.600;23.476;2023-04-03T15:40:13;5.03;;;3.47;;
67941;SDS011;54731;42.600;23.476;2023-04-03T15:42:39;6.38;;;3.70;;
67941;SDS011;54731;42.600;23.476;2023-04-03T15:45:05;8.63;;;4.70;;
67941;SDS011;54731;42.600;23.476;2023-04-03T15:47:31;10.75;;;5.85;;
67941;SDS011;54731;42.600;23.476;2023-04-03T15:49:56;13.83;;;7.70;;
67941;SDS011;54731;42.600;23.476;2023-04-03T15:52:22;8.70;;;4.53;;
67941;SDS011;54731;42.600;23.476;2023-04-03T15:54:47;4.67;;;3.33;;
67941;SDS011;54731;42.600;23.476;2023-04-03T15:57:13;9.77;;;6.03;;
67941;SDS011;54731;42.600;23.476;2023-04-03T15:59:38;12.03;;;6.57;;
67941;SDS011;54731;42.600;23.476;2023-04-03T16:02:04;5.67;;;2.70;;
67941;SDS011;54731;42.600;23.476;2023-04-03T16:04:33;5.57;;;2.83;;
67941;SDS011;54731;42.600;23.476;2023-04-03T16:07:01;3.83;;;2.17;;
67941;SDS011;54731;42.600;23.476;2023-04-03T16:09:27;2.90;;;1.88;;
67941;SDS011;54731;42.600;23.476;2023-04-03T16:11:52;5.53;;;3.87;;
67941;SDS011;54731;42.600;23.476;2023-04-03T16:14:17;20.23;;;11.03;;
67941;SDS011;54731;42.600;23.476;2023-04-03T16:16:43;40.77;;;17.30;;